createdAt,value
2018-11-01T00:02:27.613Z,22.56
2018-11-01T00:04:56.608Z,22.56
2018-11-01T00:07:25.354Z,22.57
2018-11-01T00:09:54.040Z,22.57
2018-11-01T00:12:22.792Z,22.56
2018-11-01T00:14:51.471Z,22.57
2018-11-01T00:17:20.157Z,22.58
2018-11-01T00:19:49.038Z,22.57
2018-11-01T00:22:17.979Z,22.58
2018-11-01T00:24:46.724Z,22.58
2018-11-01T00:27:15.389Z,22.58
2018-11-01T00:29:44.107Z,22.58
2018-11-01T00:32:12.767Z,22.57
2018-11-01T00:34:41.789Z,22.58
2018-11-01T00:37:10.520Z,22.58
2018-11-01T00:39:39.292Z,22.58
2018-11-01T00:42:08.202Z,22.59
2018-11-01T00:44:36.925Z,22.57
2018-11-01T00:47:05.599Z,22.59
2018-11-01T00:49:34.612Z,22.59
2018-11-01T00:52:03.370Z,22.58
2018-11-01T00:54:32.225Z,22.59
2018-11-01T00:57:01.206Z,22.58
2018-11-01T00:59:29.872Z,22.59
2018-11-01T01:01:58.647Z,22.59
2018-11-01T01:04:27.514Z,22.59
2018-11-01T01:06:56.229Z,22.59
2018-11-01T01:09:24.881Z,22.58
2018-11-01T01:11:54.244Z,22.58
2018-11-01T01:14:22.935Z,22.59
2018-11-01T01:16:51.663Z,22.59
2018-11-01T01:19:20.368Z,22.58
2018-11-01T01:21:48.999Z,22.58
2018-11-01T01:24:18.038Z,22.59
2018-11-01T01:26:46.718Z,22.59
2018-11-01T01:29:15.724Z,22.59
2018-11-01T01:31:44.364Z,22.57
2018-11-01T01:34:13.067Z,22.58
2018-11-01T01:36:41.814Z,22.58
2018-11-01T01:39:11.108Z,22.58
2018-11-01T01:41:39.861Z,22.58
2018-11-01T01:44:08.759Z,22.57
2018-11-01T01:46:37.485Z,22.57
2018-11-01T01:49:07.602Z,22.57
2018-11-01T01:51:36.345Z,22.57
2018-11-01T01:54:05.226Z,22.57
2018-11-01T01:56:33.973Z,22.57
2018-11-01T01:59:02.969Z,22.56
2018-11-01T02:01:31.640Z,22.57
2018-11-01T02:04:00.298Z,22.56
2018-11-01T02:06:28.987Z,22.56
2018-11-01T02:08:57.635Z,22.56
2018-11-01T02:11:26.466Z,22.55
2018-11-01T02:13:55.194Z,22.56
2018-11-01T02:16:24.013Z,22.55
2018-11-01T02:18:52.747Z,22.55
2018-11-01T02:21:21.519Z,22.54
2018-11-01T02:23:50.163Z,22.54
2018-11-01T02:26:18.890Z,22.55
2018-11-01T02:28:47.888Z,22.55
2018-11-01T02:31:16.650Z,22.54
2018-11-01T02:33:45.346Z,22.54
2018-11-01T02:36:13.979Z,22.54
2018-11-01T02:38:42.758Z,22.55
2018-11-01T02:41:11.445Z,22.54
2018-11-01T02:43:40.135Z,22.55
2018-11-01T02:46:08.830Z,22.55
2018-11-01T02:48:37.496Z,22.55
2018-11-01T02:51:06.228Z,22.55
2018-11-01T02:53:34.921Z,22.56
2018-11-01T02:56:03.669Z,22.56
2018-11-01T02:58:32.362Z,22.56
2018-11-01T03:01:01.090Z,22.56
2018-11-01T03:03:29.823Z,22.57
2018-11-01T03:05:58.465Z,22.56
2018-11-01T03:08:27.224Z,22.57
2018-11-01T03:10:55.975Z,22.57
2018-11-01T03:13:24.650Z,22.57
2018-11-01T03:15:53.384Z,22.58
2018-11-01T03:18:22.059Z,22.58
2018-11-01T03:20:50.849Z,22.54
2018-11-01T03:23:19.556Z,22.57
2018-11-01T03:25:48.231Z,22.58
2018-11-01T03:28:16.933Z,22.58
2018-11-01T03:30:45.655Z,22.59
2018-11-01T03:33:14.330Z,22.59
2018-11-01T03:35:43.079Z,22.59
2018-11-01T03:38:11.736Z,22.58
2018-11-01T03:40:40.369Z,22.59
2018-11-01T03:43:09.054Z,22.59
2018-11-01T03:45:37.793Z,22.59
2018-11-01T03:48:06.666Z,22.60
2018-11-01T03:50:35.345Z,22.59
2018-11-01T03:53:04.045Z,22.59
2018-11-01T03:55:32.655Z,22.60
2018-11-01T03:58:01.417Z,22.59
2018-11-01T04:00:30.134Z,22.60
2018-11-01T04:02:58.770Z,22.59
2018-11-01T04:05:27.430Z,22.59
2018-11-01T04:07:56.123Z,22.59
2018-11-01T04:10:24.761Z,22.60
2018-11-01T04:12:53.440Z,22.60
2018-11-01T04:15:22.233Z,22.59
2018-11-01T04:17:50.861Z,22.60
2018-11-01T04:20:19.606Z,22.58
2018-11-01T04:22:48.295Z,22.58
2018-11-01T04:25:16.922Z,22.59
2018-11-01T04:27:45.657Z,22.58
2018-11-01T04:30:14.369Z,22.58
2018-11-01T04:32:43.030Z,22.58
2018-11-01T04:35:11.719Z,22.57
2018-11-01T04:37:40.538Z,22.57
2018-11-01T04:40:09.927Z,22.58
2018-11-01T04:42:38.873Z,22.58
2018-11-01T04:45:09.069Z,22.57
2018-11-01T04:47:37.982Z,22.58
2018-11-01T04:50:07.725Z,22.56
2018-11-01T04:52:36.414Z,22.57
2018-11-01T04:55:05.974Z,22.56
2018-11-01T04:57:34.675Z,22.56
2018-11-01T05:00:03.625Z,22.57
2018-11-01T05:02:32.422Z,22.56
2018-11-01T05:05:01.180Z,22.56
2018-11-01T05:07:29.922Z,22.55
2018-11-01T05:09:58.599Z,22.56
2018-11-01T05:12:27.310Z,22.56
2018-11-01T05:14:56.033Z,22.56
2018-11-01T05:17:24.776Z,22.56
2018-11-01T05:19:53.451Z,22.56
2018-11-01T05:22:22.282Z,22.57
2018-11-01T05:24:51.051Z,22.57
2018-11-01T05:27:19.867Z,22.58
2018-11-01T05:29:48.659Z,22.59
2018-11-01T05:32:17.422Z,22.58
2018-11-01T05:34:46.130Z,22.59
2018-11-01T05:37:14.888Z,22.59
2018-11-01T05:39:43.649Z,22.61
2018-11-01T05:42:12.430Z,22.60
2018-11-01T05:44:41.421Z,22.61
2018-11-01T05:47:10.565Z,22.62
2018-11-01T05:49:39.351Z,22.63
2018-11-01T05:52:08.390Z,22.63
2018-11-01T05:54:37.134Z,22.63
2018-11-01T05:57:06.013Z,22.64
2018-11-01T05:59:34.819Z,22.64
2018-11-01T06:02:07.687Z,22.63
2018-11-01T06:04:36.409Z,22.65
2018-11-01T06:07:05.215Z,22.66
2018-11-01T06:09:33.946Z,22.65
2018-11-01T06:12:02.631Z,22.65
2018-11-01T06:14:31.411Z,22.65
2018-11-01T06:17:00.154Z,22.67
2018-11-01T06:19:28.914Z,22.67
2018-11-01T06:21:57.682Z,22.67
2018-11-01T06:24:26.417Z,22.68
2018-11-01T06:26:55.211Z,22.67
2018-11-01T06:29:23.910Z,22.68
2018-11-01T06:31:52.622Z,22.68
2018-11-01T06:34:27.084Z,22.69
2018-11-01T06:36:56.009Z,22.68
2018-11-01T06:39:24.712Z,22.68
2018-11-01T06:41:53.843Z,22.70
2018-11-01T06:44:22.635Z,22.69
2018-11-01T06:46:51.582Z,22.69
2018-11-01T06:49:20.895Z,22.69
2018-11-01T06:51:49.715Z,22.69
2018-11-01T06:54:18.599Z,22.69
2018-11-01T06:56:47.320Z,22.69
2018-11-01T06:59:16.389Z,22.69
2018-11-01T07:01:45.305Z,22.69
2018-11-01T07:04:14.264Z,22.69
2018-11-01T07:06:43.383Z,22.69
2018-11-01T07:09:13.740Z,22.69
2018-11-01T07:11:42.761Z,22.68
2018-11-01T07:14:11.545Z,22.68
2018-11-01T07:16:40.496Z,22.69
2018-11-01T07:19:09.583Z,22.69
2018-11-01T07:21:38.424Z,22.69
2018-11-01T07:24:07.191Z,22.69
2018-11-01T07:26:36.260Z,22.68
2018-11-01T07:29:05.305Z,22.68
2018-11-01T07:31:34.024Z,22.69
2018-11-01T07:34:02.969Z,22.68
2018-11-01T07:36:31.717Z,22.69
2018-11-01T07:39:00.684Z,22.69
2018-11-01T07:41:29.469Z,22.68
2018-11-01T07:43:58.359Z,22.68
2018-11-01T07:46:27.125Z,22.68
2018-11-01T07:48:55.826Z,22.67
2018-11-01T07:51:24.560Z,22.68
2018-11-01T07:53:53.349Z,22.67
2018-11-01T07:56:22.149Z,22.67
2018-11-01T07:58:50.880Z,22.68
2018-11-01T08:01:19.604Z,22.68
2018-11-01T08:03:48.971Z,22.68
2018-11-01T08:06:17.719Z,22.68
2018-11-01T08:08:46.432Z,22.68
2018-11-01T08:11:15.208Z,22.69
2018-11-01T08:13:44.080Z,22.69
2018-11-01T08:16:13.067Z,22.69
2018-11-01T08:18:41.816Z,22.69
2018-11-01T08:21:10.952Z,22.71
2018-11-01T08:23:39.627Z,22.70
2018-11-01T08:26:08.332Z,22.71
2018-11-01T08:28:37.074Z,22.72
2018-11-01T08:31:05.833Z,22.72
2018-11-01T08:33:34.905Z,22.73
2018-11-01T08:36:03.893Z,22.73
2018-11-01T08:38:32.620Z,22.73
2018-11-01T08:41:01.410Z,22.74
2018-11-01T08:43:30.176Z,22.75
2018-11-01T08:45:58.973Z,22.74
2018-11-01T08:48:27.890Z,22.76
2018-11-01T08:50:56.668Z,22.76
2018-11-01T08:53:25.498Z,22.76
2018-11-01T08:55:54.254Z,22.77
2018-11-01T08:58:22.960Z,22.78
2018-11-01T09:00:51.713Z,22.78
2018-11-01T09:03:20.565Z,22.78
2018-11-01T09:05:49.372Z,22.79
2018-11-01T09:08:18.183Z,22.79
2018-11-01T09:10:46.880Z,22.77
2018-11-01T09:13:15.639Z,22.79
2018-11-01T09:15:44.425Z,22.80
2018-11-01T09:18:13.157Z,22.80
2018-11-01T09:20:41.885Z,22.80
2018-11-01T09:23:10.678Z,22.81
2018-11-01T09:25:39.415Z,22.81
2018-11-01T09:28:08.211Z,22.82
2018-11-01T09:30:37.217Z,22.82
2018-11-01T09:33:06.475Z,22.82
2018-11-01T09:35:35.309Z,22.83
2018-11-01T09:38:04.086Z,22.83
2018-11-01T09:40:32.800Z,22.83
2018-11-01T09:43:01.648Z,22.82
2018-11-01T09:45:30.468Z,22.84
2018-11-01T09:47:59.252Z,22.82
2018-11-01T09:50:28.042Z,22.83
2018-11-01T09:52:56.853Z,22.84
2018-11-01T09:55:25.643Z,22.83
2018-11-01T09:57:54.858Z,22.83
2018-11-01T10:00:23.657Z,22.83
2018-11-01T10:02:52.438Z,22.84
2018-11-01T10:05:21.309Z,22.83
2018-11-01T10:07:50.083Z,22.83
2018-11-01T10:10:18.838Z,22.84
2018-11-01T10:12:47.632Z,22.82
2018-11-01T10:15:16.658Z,22.83
2018-11-01T10:17:45.587Z,22.84
2018-11-01T10:20:15.066Z,22.82
2018-11-01T10:22:44.213Z,22.83
2018-11-01T10:25:14.529Z,22.83
2018-11-01T10:27:43.437Z,22.83
2018-11-01T10:30:14.969Z,22.83
2018-11-01T10:32:44.329Z,22.82
2018-11-01T10:35:13.156Z,22.82
2018-11-01T10:37:41.941Z,22.83
2018-11-01T10:40:13.726Z,22.82
2018-11-01T10:42:42.515Z,22.81
2018-11-01T10:45:11.447Z,22.82
2018-11-01T10:47:40.260Z,22.82
2018-11-01T10:50:14.273Z,22.82
2018-11-01T10:52:43.066Z,22.82
2018-11-01T10:55:12.843Z,22.83
2018-11-01T10:57:41.961Z,22.83
2018-11-01T11:00:17.012Z,22.82
2018-11-01T11:02:48.982Z,22.83
2018-11-01T11:05:18.775Z,22.82
2018-11-01T11:07:47.954Z,22.84
2018-11-01T11:10:17.141Z,22.83
2018-11-01T11:12:45.912Z,22.84
2018-11-01T11:15:14.770Z,22.85
2018-11-01T11:17:43.586Z,22.85
2018-11-01T11:20:13.065Z,22.85
2018-11-01T11:22:42.125Z,22.86
2018-11-01T11:25:12.262Z,22.86
2018-11-01T11:27:41.348Z,22.87
2018-11-01T11:30:11.664Z,22.86
2018-11-01T11:32:40.636Z,22.87
2018-11-01T11:35:10.442Z,22.87
2018-11-01T11:37:39.225Z,22.86
2018-11-01T11:40:09.523Z,22.87
2018-11-01T11:42:38.355Z,22.89
2018-11-01T11:45:08.119Z,22.89
2018-11-01T11:47:36.894Z,22.88
2018-11-01T11:50:07.320Z,22.89
2018-11-01T11:52:36.084Z,22.90
2018-11-01T11:55:06.938Z,22.89
2018-11-01T11:57:35.732Z,22.89
2018-11-01T12:00:04.835Z,22.90
2018-11-01T12:02:33.723Z,22.89
2018-11-01T12:05:03.624Z,22.89
2018-11-01T12:07:32.418Z,22.89
2018-11-01T12:10:01.194Z,22.89
2018-11-01T12:12:30.162Z,22.90
2018-11-01T12:14:59.240Z,22.91
2018-11-01T12:17:28.110Z,22.90
2018-11-01T12:19:56.878Z,22.90
2018-11-01T12:22:25.661Z,22.90
2018-11-01T12:24:54.447Z,22.90
2018-11-01T12:27:23.231Z,22.90
2018-11-01T12:29:52.242Z,22.90
2018-11-01T12:32:20.972Z,22.90
2018-11-01T12:34:49.711Z,22.90
2018-11-01T12:37:18.483Z,22.90
2018-11-01T12:39:47.289Z,22.90
2018-11-01T12:42:16.132Z,22.90
2018-11-01T12:44:44.890Z,22.89
2018-11-01T12:47:13.641Z,22.89
2018-11-01T12:49:42.553Z,22.89
2018-11-01T12:52:11.336Z,22.90
2018-11-01T12:54:40.037Z,22.89
2018-11-01T12:57:08.801Z,22.88
2018-11-01T12:59:37.591Z,22.89
2018-11-01T13:02:06.441Z,22.89
2018-11-01T13:04:35.152Z,22.89
2018-11-01T13:07:04.082Z,22.89
2018-11-01T13:09:32.837Z,22.87
2018-11-01T13:12:01.584Z,22.88
2018-11-01T13:14:30.377Z,22.89
2018-11-01T13:16:59.143Z,22.87
2018-11-01T13:19:28.515Z,22.89
2018-11-01T13:21:57.255Z,22.88
2018-11-01T13:24:25.987Z,22.88
2018-11-01T13:26:54.859Z,22.88
2018-11-01T13:29:23.638Z,22.87
2018-11-01T13:31:52.388Z,22.87
2018-11-01T13:34:21.173Z,22.87
2018-11-01T13:36:49.899Z,22.87
2018-11-01T13:39:18.741Z,22.88
2018-11-01T13:41:47.583Z,22.87
2018-11-01T13:44:16.372Z,22.87
2018-11-01T13:46:45.268Z,22.88
2018-11-01T13:49:14.157Z,22.88
2018-11-01T13:51:42.926Z,22.89
2018-11-01T13:54:11.747Z,22.88
2018-11-01T13:56:40.581Z,22.88
2018-11-01T13:59:09.346Z,22.89
2018-11-01T14:01:38.118Z,22.89
2018-11-01T14:04:06.999Z,22.89
2018-11-01T14:06:35.853Z,22.89
2018-11-01T14:09:06.585Z,22.89
2018-11-01T14:11:35.396Z,22.90
2018-11-01T14:14:04.544Z,22.90
2018-11-01T14:16:33.047Z,22.90
2018-11-01T14:19:02.146Z,22.91
2018-11-01T14:21:31.068Z,22.91
2018-11-01T14:23:59.838Z,22.91
2018-11-01T14:26:28.649Z,22.91
2018-11-01T14:28:57.499Z,22.92
2018-11-01T14:31:26.341Z,22.91
2018-11-01T14:33:55.223Z,22.92
2018-11-01T14:36:24.017Z,22.91
2018-11-01T14:38:52.854Z,22.91
2018-11-01T14:41:21.624Z,22.92
2018-11-01T14:43:50.358Z,22.91
2018-11-01T14:46:19.090Z,22.92
2018-11-01T14:48:47.847Z,22.92
2018-11-01T14:51:16.617Z,22.92
2018-11-01T14:53:45.979Z,22.92
2018-11-01T14:56:16.198Z,22.92
2018-11-01T14:58:44.671Z,22.93
2018-11-01T15:01:12.361Z,22.91
2018-11-01T15:03:41.198Z,22.92
2018-11-01T15:06:09.968Z,22.92
2018-11-01T15:08:38.783Z,22.91
2018-11-01T15:11:07.690Z,22.91
2018-11-01T15:13:36.422Z,22.91
2018-11-01T15:16:05.220Z,22.92
2018-11-01T15:18:33.993Z,22.91
2018-11-01T15:21:03.163Z,22.92
2018-11-01T15:23:31.998Z,22.91
2018-11-01T15:26:00.922Z,22.91
2018-11-01T15:28:29.903Z,22.91
2018-11-01T15:30:58.665Z,22.91
2018-11-01T15:33:27.746Z,22.90
2018-11-01T15:35:56.502Z,22.90
2018-11-01T15:38:25.256Z,22.90
2018-11-01T15:40:59.993Z,22.90
2018-11-01T15:43:29.727Z,22.90
2018-11-01T15:45:58.511Z,22.89
2018-11-01T15:48:27.305Z,22.89
2018-11-01T15:50:56.042Z,22.89
2018-11-01T15:53:24.908Z,22.88
2018-11-01T15:55:53.840Z,22.88
2018-11-01T15:58:22.601Z,22.89
2018-11-01T16:00:51.374Z,22.88
2018-11-01T16:03:20.137Z,22.88
2018-11-01T16:05:48.980Z,22.88
2018-11-01T16:08:17.841Z,22.89
2018-11-01T16:10:46.610Z,22.87
2018-11-01T16:13:16.314Z,22.87
2018-11-01T16:15:45.155Z,22.88
2018-11-01T16:18:13.945Z,22.87
2018-11-01T16:20:42.805Z,22.86
2018-11-01T16:23:11.626Z,22.83
2018-11-01T16:25:40.410Z,22.86
2018-11-01T16:28:09.330Z,22.85
2018-11-01T16:30:38.126Z,22.86
2018-11-01T16:33:06.975Z,22.86
2018-11-01T16:35:35.807Z,22.86
2018-11-01T16:38:04.600Z,22.86
2018-11-01T16:40:33.365Z,22.86
2018-11-01T16:43:02.202Z,22.86
2018-11-01T16:45:31.048Z,22.87
2018-11-01T16:47:59.837Z,22.87
2018-11-01T16:50:28.786Z,22.87
2018-11-01T16:52:57.571Z,22.88
2018-11-01T16:55:26.348Z,22.87
2018-11-01T16:57:55.169Z,22.88
2018-11-01T17:00:23.943Z,22.88
2018-11-01T17:02:52.815Z,22.89
2018-11-01T17:05:21.679Z,22.89
2018-11-01T17:07:50.529Z,22.88
2018-11-01T17:10:19.362Z,22.88
2018-11-01T17:12:48.208Z,22.88
2018-11-01T17:15:17.159Z,22.89
2018-11-01T17:17:45.986Z,22.88
2018-11-01T17:20:14.841Z,22.89
2018-11-01T17:22:43.836Z,22.89
2018-11-01T17:25:13.501Z,22.89
2018-11-01T17:27:42.198Z,22.90
2018-11-01T17:30:11.265Z,22.90
2018-11-01T17:32:45.158Z,22.89
2018-11-01T17:35:14.286Z,22.90
2018-11-01T17:37:43.171Z,22.89
2018-11-01T17:40:12.137Z,22.91
2018-11-01T17:42:41.441Z,22.88
2018-11-01T17:45:10.789Z,22.89
2018-11-01T17:47:39.814Z,22.90
2018-11-01T17:50:11.209Z,22.89
2018-11-01T17:52:40.028Z,22.90
2018-11-01T17:55:08.848Z,22.90
2018-11-01T17:57:37.975Z,22.90
2018-11-01T18:00:08.994Z,22.91
2018-11-01T18:02:38.071Z,22.90
2018-11-01T18:05:07.244Z,22.91
2018-11-01T18:07:36.102Z,22.91
2018-11-01T18:10:04.958Z,22.90
2018-11-01T18:12:33.790Z,22.91
2018-11-01T18:15:02.745Z,22.90
2018-11-01T18:17:31.676Z,22.90
2018-11-01T18:20:00.508Z,22.90
2018-11-01T18:22:29.302Z,22.89
2018-11-01T18:24:58.101Z,22.89
2018-11-01T18:27:26.900Z,22.89
2018-11-01T18:29:55.783Z,22.89
2018-11-01T18:32:24.718Z,22.89
2018-11-01T18:34:53.543Z,22.89
2018-11-01T18:37:22.325Z,22.89
2018-11-01T18:39:51.101Z,22.89
2018-11-01T18:42:21.017Z,22.88
2018-11-01T18:44:49.821Z,22.88
2018-11-01T18:47:19.612Z,22.88
2018-11-01T18:49:48.476Z,22.89
2018-11-01T18:52:17.407Z,22.88
2018-11-01T18:54:46.513Z,22.87
2018-11-01T18:57:15.515Z,22.87
2018-11-01T18:59:44.748Z,22.88
2018-11-01T19:02:13.559Z,22.88
2018-11-01T19:04:42.405Z,22.87
2018-11-01T19:07:11.287Z,22.88
2018-11-01T19:09:40.178Z,22.88
2018-11-01T19:12:09.031Z,22.87
2018-11-01T19:14:37.958Z,22.87
2018-11-01T19:17:07.184Z,22.87
2018-11-01T19:19:36.082Z,22.86
2018-11-01T19:22:05.625Z,22.86
2018-11-01T19:24:34.495Z,22.86
2018-11-01T19:27:03.509Z,22.88
2018-11-01T19:29:32.375Z,22.87
2018-11-01T19:32:01.394Z,22.88
2018-11-01T19:34:30.440Z,22.88
2018-11-01T19:36:59.157Z,22.88
2018-11-01T19:39:28.034Z,22.88
2018-11-01T19:41:56.856Z,22.89
2018-11-01T19:44:25.804Z,22.89
2018-11-01T19:46:55.075Z,22.89
2018-11-01T19:49:24.199Z,22.89
2018-11-01T19:51:53.308Z,22.90
2018-11-01T19:54:22.312Z,22.90
2018-11-01T19:56:51.297Z,22.90
2018-11-01T19:59:20.401Z,22.91
2018-11-01T20:01:49.377Z,22.91
2018-11-01T20:04:18.493Z,22.93
2018-11-01T20:06:47.510Z,22.93
2018-11-01T20:09:16.365Z,22.95
2018-11-01T20:11:45.230Z,22.97
2018-11-01T20:14:14.158Z,22.98
2018-11-01T20:16:43.042Z,23.00
2018-11-01T20:19:11.881Z,23.02
2018-11-01T20:21:40.865Z,23.04
2018-11-01T20:24:09.667Z,23.05
2018-11-01T20:26:38.544Z,23.08
2018-11-01T20:29:07.753Z,23.06
2018-11-01T20:31:36.763Z,23.10
2018-11-01T20:34:06.592Z,23.11
2018-11-01T20:36:35.438Z,23.13
2018-11-01T20:42:36.225Z,23.14
2018-11-01T20:45:06.537Z,23.14
2018-11-01T20:47:35.381Z,23.16
2018-11-01T20:50:04.507Z,23.18
2018-11-01T20:52:33.387Z,23.19
2018-11-01T20:55:02.246Z,23.22
2018-11-01T20:57:31.838Z,23.24
2018-11-01T21:00:00.703Z,23.25
2018-11-01T21:02:29.666Z,23.28
2018-11-01T21:04:58.553Z,23.30
2018-11-01T21:07:27.449Z,23.32
2018-11-01T21:09:56.310Z,23.33
2018-11-01T21:12:25.077Z,23.35
2018-11-01T21:14:54.168Z,23.36
2018-11-01T21:17:23.056Z,23.38
2018-11-01T21:19:51.954Z,23.39
2018-11-01T21:22:20.877Z,23.40
2018-11-01T21:24:49.726Z,23.41
2018-11-01T21:27:18.536Z,23.43
2018-11-01T21:29:47.343Z,23.44
2018-11-01T21:32:16.262Z,23.45
2018-11-01T21:34:45.098Z,23.47
2018-11-01T21:37:14.077Z,23.48
2018-11-01T21:39:43.463Z,23.49
2018-11-01T21:42:12.382Z,23.49
2018-11-01T21:44:41.245Z,23.50
2018-11-01T21:47:10.160Z,23.49
2018-11-01T21:49:39.136Z,23.49
2018-11-01T21:52:07.953Z,23.51
2018-11-01T21:54:37.222Z,23.49
2018-11-01T21:57:06.308Z,23.50
2018-11-01T21:59:35.196Z,23.51
2018-11-01T22:02:04.325Z,23.50
2018-11-01T22:04:33.280Z,23.50
2018-11-01T22:07:02.098Z,23.51
2018-11-01T22:09:31.013Z,23.50
2018-11-01T22:11:59.974Z,23.50
2018-11-01T22:14:28.839Z,23.51
2018-11-01T22:16:57.642Z,23.50
2018-11-01T22:19:26.484Z,23.50
2018-11-01T22:21:55.413Z,23.49
2018-11-01T22:24:24.209Z,23.50
2018-11-01T22:26:53.002Z,23.49
2018-11-01T22:29:21.792Z,23.49
2018-11-01T22:31:50.560Z,23.49
2018-11-01T22:34:19.356Z,23.48
2018-11-01T22:36:48.168Z,23.48
2018-11-01T22:39:17.026Z,23.48
2018-11-01T22:41:45.783Z,23.49
2018-11-01T22:44:14.565Z,23.49
2018-11-01T22:46:43.351Z,23.48
2018-11-01T22:49:12.151Z,23.47
2018-11-01T22:51:40.925Z,23.48
2018-11-01T22:54:09.675Z,23.48
2018-11-01T22:56:38.418Z,23.47
2018-11-01T22:59:07.249Z,23.48
2018-11-01T23:01:36.037Z,23.47
2018-11-01T23:04:05.795Z,23.48
2018-11-01T23:06:34.536Z,23.48
2018-11-01T23:09:03.457Z,23.47
2018-11-01T23:11:32.227Z,23.47
2018-11-01T23:14:01.033Z,23.46
2018-11-01T23:16:29.878Z,23.46
2018-11-01T23:18:58.753Z,23.47
2018-11-01T23:21:27.546Z,23.47
2018-11-01T23:23:56.322Z,23.48
2018-11-01T23:26:25.103Z,23.48
2018-11-01T23:28:53.895Z,23.49
2018-11-01T23:31:22.645Z,23.49
2018-11-01T23:33:51.438Z,23.49
2018-11-01T23:36:19.409Z,23.48
2018-11-01T23:38:53.241Z,23.48
2018-11-01T23:41:27.365Z,23.49
2018-11-01T23:44:01.259Z,23.48
2018-11-01T23:46:35.257Z,23.48
2018-11-01T23:49:06.921Z,23.48
2018-11-01T23:51:35.659Z,23.48
2018-11-01T23:54:04.456Z,23.47
2018-11-01T23:56:33.273Z,23.49
2018-11-01T23:59:02.063Z,23.48
